Time;durP1;ratioP1;P1;durP2;ratioP2;P2;SDS_P1;SDS_P2;PMS_P1;PMS_P2;Temp;Humidity;BMP_temperature;BMP_pressure;BME280_temperature;BME280_humidity;BME280_pressure;Samples;Min_cycle;Max_cycle;Signal;HPM_P1;HPM_P2
2023/12/29 00:02:01;;;;;;;;;3.00;3.00;;;;;10.47;77.61;101158.59;5109706;27;45934;-63
2023/12/29 00:04:27;;;;;;;;;4.75;3.50;;;;;10.50;77.57;101156.88;5121036;27;45484;-63
2023/12/29 00:06:53;;;;;;;;;2.33;2.00;;;;;10.37;77.29;101140.19;5132288;27;45492;-60
2023/12/29 00:09:22;;;;;;;;;3.00;2.33;;;;;10.40;77.83;101124.47;5133761;27;45607;-63
2023/12/29 00:11:51;;;;;;;;;5.33;2.00;;;;;10.73;77.07;101172.78;5126091;27;46258;-61
2023/12/29 00:14:17;;;;;;;;;6.00;2.33;;;;;10.69;77.04;101155.28;5119314;27;45401;-62
2023/12/29 00:16:44;;;;;;;;;2.00;2.00;;;;;10.77;76.80;101173.69;5116553;27;45484;-61
2023/12/29 00:19:10;;;;;;;;;9.33;2.00;;;;;10.84;76.93;101180.72;5120474;27;45270;-60
2023/12/29 00:21:38;;;;;;;;;4.25;4.00;;;;;10.80;77.17;101171.97;5111758;27;45316;-59
2023/12/29 00:24:05;;;;;;;;;5.67;2.67;;;;;10.81;76.69;101167.59;5118601;27;45499;-61
2023/12/29 00:26:31;;;;;;;;;2.33;2.33;;;;;10.83;77.10;101166.75;5118361;27;45407;-58
2023/12/29 00:28:57;;;;;;;;;6.00;3.00;;;;;10.88;76.63;101166.78;5118555;27;45536;-61
2023/12/29 00:31:23;;;;;;;;;3.33;2.33;;;;;10.83;76.93;101155.41;5118857;27;45689;-60
2023/12/29 00:33:51;;;;;;;;;2.00;2.00;;;;;10.81;76.48;101160.63;5125648;27;46170;-60
2023/12/29 00:36:18;;;;;;;;;4.00;3.00;;;;;10.37;76.35;101087.81;5119568;27;45746;-61
2023/12/29 00:38:44;;;;;;;;;3.00;1.00;;;;;10.93;76.79;101166.81;5129563;27;45499;-60
2023/12/29 00:41:09;;;;;;;;;2.00;2.00;;;;;10.92;76.28;101171.19;5126068;27;46221;-60
2023/12/29 00:43:58;;;;;;;;;4.67;2.67;;;;;11.00;76.80;101176.47;5124079;27;45523;-61
2023/12/29 00:46:24;;;;;;;;;3.00;2.00;;;;;10.98;76.50;101170.34;5121065;27;45424;-65
2023/12/29 00:48:52;;;;;;;;;2.33;1.67;;;;;11.02;76.23;101161.66;5119658;27;45344;-60
2023/12/29 00:51:18;;;;;;;;;4.00;3.00;;;;;10.98;76.42;101158.13;5125477;27;46277;-60
2023/12/29 00:53:44;;;;;;;;;2.33;2.33;;;;;11.04;76.21;101168.66;5123406;27;45541;-65
2023/12/29 00:56:11;;;;;;;;;2.00;1.00;;;;;11.04;76.41;101163.41;5127471;27;45830;-61
2023/12/29 00:58:40;;;;;;;;;3.00;1.67;;;;;11.09;75.74;101165.19;5122836;27;45616;-61
2023/12/29 01:01:08;;;;;;;;;4.33;2.00;;;;;11.08;75.69;101156.47;5130404;27;45678;-63
2023/12/29 01:03:34;;;;;;;;;6.33;2.00;;;;;11.10;75.79;101161.69;5121640;27;45467;-62
2023/12/29 01:06:00;;;;;;;;;4.33;1.00;;;;;11.02;75.50;101149.41;5134281;27;45453;-61
2023/12/29 01:08:25;;;;;;;;;2.33;1.00;;;;;11.03;75.67;101155.53;5124942;27;45516;-61
2023/12/29 01:10:51;;;;;;;;;2.00;2.00;;;;;11.11;75.57;101160.84;5118123;27;45919;-59
2023/12/29 01:13:17;;;;;;;;;3.00;2.67;;;;;11.03;75.77;101150.28;5118457;27;45274;-62
2023/12/29 01:15:45;;;;;;;;;6.67;2.33;;;;;11.10;75.59;101149.47;5118981;27;45682;-61
2023/12/29 01:18:11;;;;;;;;;2.33;2.00;;;;;11.11;75.94;101156.47;5120479;27;45562;-60
2023/12/29 01:20:39;;;;;;;;;5.00;2.00;;;;;11.00;75.94;101124.06;5119796;27;45420;-60
2023/12/29 01:23:05;;;;;;;;;1.67;1.67;;;;;11.11;75.43;101138.13;5120083;27;45537;-60
2023/12/29 01:25:31;;;;;;;;;6.00;2.00;;;;;11.12;75.42;101131.13;5128864;27;45487;-63
2023/12/29 01:27:57;;;;;;;;;3.00;3.00;;;;;11.12;75.56;101124.13;5111866;27;45668;-61
2023/12/29 01:30:23;;;;;;;;;3.33;2.00;;;;;11.18;75.28;101142.53;5134389;27;46676;-60
2023/12/29 01:32:49;;;;;;;;;5.00;2.00;;;;;11.14;75.43;101132.03;5138116;27;45462;-59
2023/12/29 01:35:14;;;;;;;;;3.00;2.00;;;;;11.19;75.17;101135.53;5140775;27;45462;-60
2023/12/29 01:37:40;;;;;;;;;8.33;2.00;;;;;11.20;75.59;101135.56;5139932;27;45395;-61
2023/12/29 01:40:08;;;;;;;;;2.67;1.00;;;;;11.14;75.33;101132.88;5104954;27;45761;-61
2023/12/29 01:42:35;;;;;;;;;3.00;2.00;;;;;11.23;75.65;101138.19;5120255;27;45794;-61
2023/12/29 01:45:01;;;;;;;;;5.00;2.00;;;;;10.93;75.43;101081.22;5127499;27;45331;-60
2023/12/29 01:47:27;;;;;;;;;2.67;2.00;;;;;11.28;75.13;101138.22;5119464;27;45831;-60
2023/12/29 01:49:53;;;;;;;;;4.00;2.33;;;;;10.98;75.03;101091.72;5134081;27;46298;-60
2023/12/29 01:52:24;;;;;;;;;3.67;2.00;;;;;11.24;75.17;101145.19;5122047;27;46107;-59
2023/12/29 01:54:53;;;;;;;;;6.00;1.00;;;;;11.17;74.84;101140.75;5134210;27;45395;-59
2023/12/29 01:57:20;;;;;;;;;4.33;3.00;;;;;11.23;75.24;101150.44;5120570;27;45652;-59
2023/12/29 01:59:48;;;;;;;;;1.00;1.00;;;;;11.29;75.33;101157.44;5139118;27;46299;-60
2023/12/29 02:02:36;;;;;;;;;2.00;2.00;;;;;11.28;75.65;101150.47;5117337;27;45586;-62
2023/12/29 02:05:03;;;;;;;;;7.67;1.33;;;;;11.10;75.62;101140.72;5105732;27;45313;-61
2023/12/29 02:07:40;;;;;;;;;7.67;2.00;;;;;11.19;75.77;101146.03;5141437;27;45446;-61
2023/12/29 02:10:06;;;;;;;;;6.00;2.00;;;;;11.22;75.38;101160.06;5139540;27;46162;-60
2023/12/29 02:12:35;;;;;;;;;5.33;2.00;;;;;10.99;75.44;101109.22;5138942;27;45675;-60
2023/12/29 02:15:01;;;;;;;;;4.00;1.00;;;;;11.20;75.75;101155.63;5139597;27;45476;-61
2023/12/29 02:17:33;;;;;;;;;3.00;1.00;;;;;11.22;75.99;101160.06;5140213;27;45747;-62
2023/12/29 02:19:59;;;;;;;;;4.00;1.00;;;;;11.26;75.74;101155.69;5138916;27;45461;-61
2023/12/29 02:22:24;;;;;;;;;1.33;1.33;;;;;11.26;76.10;101158.31;5138998;27;45501;-60
2023/12/29 02:24:50;;;;;;;;;3.33;2.00;;;;;11.22;76.18;101149.56;5138833;27;45465;-60
2023/12/29 02:27:22;;;;;;;;;3.00;1.00;;;;;11.30;75.63;101160.09;5120669;27;45841;-62
2023/12/29 02:30:02;;;;;;;;;3.00;1.00;;;;;11.27;75.67;101159.19;5139479;27;45608;-60
2023/12/29 02:32:29;;;;;;;;;2.00;2.00;;;;;11.31;75.92;101158.34;5135814;27;45229;-59
2023/12/29 02:34:58;;;;;;;;;4.33;2.00;;;;;11.28;75.83;101158.31;5134557;27;45400;-59
2023/12/29 02:37:26;;;;;;;;;5.00;2.00;;;;;11.24;76.21;101141.69;5127781;27;45939;-59
2023/12/29 02:39:52;;;;;;;;;3.00;3.00;;;;;11.33;75.61;101146.97;5138222;27;46169;-61
2023/12/29 02:42:17;;;;;;;;;4.00;1.67;;;;;11.28;75.97;101132.97;5138144;27;45523;-60
2023/12/29 02:44:43;;;;;;;;;1.33;1.33;;;;;11.14;75.45;101097.94;5138351;27;45410;-61
2023/12/29 02:47:09;;;;;;;;;1.67;1.67;;;;;11.23;76.16;101111.09;5139069;27;45416;-60
2023/12/29 02:49:35;;;;;;;;;3.33;1.67;;;;;11.41;75.51;101145.28;5120839;27;47244;-60
2023/12/29 02:52:00;;;;;;;;;4.00;2.67;;;;;11.40;75.51;101143.53;5138309;27;45408;-59
2023/12/29 02:54:26;;;;;;;;;2.33;1.67;;;;;11.39;75.78;101144.41;5138070;27;45462;-60
2023/12/29 02:56:51;;;;;;;;;2.00;1.00;;;;;11.38;75.72;101134.78;5138105;27;45451;-58
2023/12/29 02:59:17;;;;;;;;;2.00;2.00;;;;;11.37;75.81;101125.16;5138332;27;45685;-60
2023/12/29 03:01:43;;;;;;;;;2.00;2.00;;;;;11.42;75.54;101126.06;5138190;27;45564;-62
2023/12/29 03:04:08;;;;;;;;;4.67;1.67;;;;;11.43;75.46;101119.91;5138446;27;45281;-59
2023/12/29 03:06:34;;;;;;;;;2.00;2.00;;;;;11.44;75.48;101110.34;5137454;27;45381;-59
2023/12/29 03:08:59;;;;;;;;;3.00;1.00;;;;;11.32;75.35;101077.06;5141353;27;46591;-59
2023/12/29 03:11:25;;;;;;;;;5.33;3.33;;;;;11.40;75.52;101091.06;5141795;27;45485;-60
2023/12/29 03:13:51;;;;;;;;;2.00;2.00;;;;;11.37;75.89;101085.81;5142784;27;45421;-59
2023/12/29 03:16:16;;;;;;;;;3.33;2.00;;;;;11.31;75.39;101096.28;5143721;27;45366;-59
2023/12/29 03:18:42;;;;;;;;;5.00;2.00;;;;;11.31;75.92;101092.78;5141730;27;45453;-59
2023/12/29 03:21:08;;;;;;;;;2.00;2.00;;;;;11.30;76.29;101098.91;5141962;27;45951;-60
2023/12/29 03:23:34;;;;;;;;;1.67;1.00;;;;;11.30;76.17;101094.53;5124880;27;45504;-61
2023/12/29 03:25:59;;;;;;;;;2.00;2.00;;;;;11.33;76.30;101099.78;5142049;27;45537;-60
2023/12/29 03:28:25;;;;;;;;;2.00;1.00;;;;;11.32;75.71;101100.66;5141773;27;45691;-61
2023/12/29 03:30:50;;;;;;;;;2.00;2.00;;;;;11.31;76.05;101104.13;5142833;27;45241;-63
2023/12/29 03:33:16;;;;;;;;;5.67;2.00;;;;;11.20;76.40;101092.72;5141163;27;45297;-62
2023/12/29 03:35:41;;;;;;;;;5.00;2.33;;;;;11.17;76.05;101074.34;5132384;27;45382;-60
2023/12/29 03:38:07;;;;;;;;;4.00;1.00;;;;;11.25;76.65;101091.00;5118075;27;45738;-61
2023/12/29 03:40:32;;;;;;;;;2.00;2.00;;;;;11.28;76.28;101096.25;5141367;27;45341;-60
2023/12/29 03:42:58;;;;;;;;;5.33;1.67;;;;;11.30;76.10;101080.56;5141860;27;45600;-61
2023/12/29 03:45:24;;;;;;;;;2.33;1.00;;;;;11.28;76.23;101070.03;5142175;27;45393;-60
2023/12/29 03:47:49;;;;;;;;;3.67;2.00;;;;;11.33;76.06;101084.03;5140935;27;48243;-59
2023/12/29 03:50:15;;;;;;;;;3.00;2.00;;;;;11.27;76.53;101078.78;5140949;27;45392;-63
2023/12/29 03:52:40;;;;;;;;;2.33;2.00;;;;;11.25;76.39;101077.91;5141093;27;45486;-59
2023/12/29 03:55:06;;;;;;;;;1.00;1.00;;;;;11.20;76.51;101072.63;5142073;27;45299;-60
2023/12/29 03:57:32;;;;;;;;;6.00;3.00;;;;;11.12;76.94;101061.22;5141503;27;45487;-63
2023/12/29 03:59:57;;;;;;;;;3.33;3.00;;;;;11.23;76.55;101070.03;5141164;27;45284;-62
2023/12/29 04:02:23;;;;;;;;;4.67;2.00;;;;;11.14;76.68;101050.75;5140980;27;45533;-60
2023/12/29 04:04:48;;;;;;;;;2.67;2.00;;;;;11.20;76.43;101061.25;5141485;27;45361;-61
2023/12/29 04:07:14;;;;;;;;;1.33;1.33;;;;;11.26;76.68;101069.16;5141070;27;46070;-59
2023/12/29 04:09:39;;;;;;;;;4.00;2.67;;;;;11.17;76.43;101050.75;5141486;27;45679;-60
2023/12/29 04:12:06;;;;;;;;;0.67;0.67;;;;;11.28;76.09;101062.19;5141199;27;45419;-60
2023/12/29 04:14:31;;;;;;;;;3.00;0.67;;;;;11.27;76.34;101065.69;5141342;27;45267;-60
2023/12/29 04:16:57;;;;;;;;;2.33;2.00;;;;;11.20;75.96;101058.63;5141118;27;45346;-62
2023/12/29 04:19:22;;;;;;;;;4.00;1.00;;;;;11.29;76.18;101063.91;5140681;27;45476;-61
2023/12/29 04:21:48;;;;;;;;;3.00;1.00;;;;;11.26;75.60;101058.66;5140818;27;45553;-61
2023/12/29 04:24:14;;;;;;;;;5.00;2.00;;;;;11.31;75.88;101064.81;5140894;27;45519;-63
2023/12/29 04:26:39;;;;;;;;;2.33;0.67;;;;;11.35;75.93;101066.56;5140920;27;46099;-60
2023/12/29 04:29:05;;;;;;;;;4.33;1.33;;;;;11.38;75.79;101065.72;5140253;27;45411;-61
2023/12/29 04:31:30;;;;;;;;;1.00;1.00;;;;;11.37;75.70;101069.22;5140369;27;45348;-64
2023/12/29 04:33:56;;;;;;;;;1.00;1.00;;;;;11.41;75.63;101055.22;5137904;27;45481;-63
2023/12/29 04:36:21;;;;;;;;;5.00;0.33;;;;;11.25;75.77;101043.81;5107267;27;45428;-61
2023/12/29 04:38:47;;;;;;;;;5.33;2.33;;;;;11.32;76.09;101074.44;5140571;27;45303;-61
2023/12/29 04:41:13;;;;;;;;;1.67;1.33;;;;;11.34;75.62;101070.09;5142043;27;45391;-63
2023/12/29 04:43:39;;;;;;;;;2.00;0.33;;;;;11.35;75.71;101069.19;5140974;27;45426;-61
2023/12/29 04:46:04;;;;;;;;;6.00;1.00;;;;;11.32;75.89;101070.91;5139974;27;46090;-62
2023/12/29 04:48:30;;;;;;;;;2.00;1.00;;;;;11.32;76.21;101074.44;5140256;27;45328;-62
2023/12/29 04:50:56;;;;;;;;;2.00;0.67;;;;;11.34;76.11;101071.81;5141151;27;45415;-60
2023/12/29 04:53:22;;;;;;;;;0.67;0.33;;;;;11.38;75.96;101076.19;5141469;27;45528;-60
2023/12/29 04:55:47;;;;;;;;;4.00;1.33;;;;;11.39;75.87;101067.44;5140499;27;46256;-65
2023/12/29 04:58:13;;;;;;;;;8.33;2.00;;;;;11.40;75.57;101061.34;5139328;27;45664;-62
2023/12/29 05:00:39;;;;;;;;;1.33;1.00;;;;;11.26;75.28;101042.94;5140736;27;45566;-60
2023/12/29 05:03:08;;;;;;;;;2.00;1.00;;;;;11.31;75.91;101058.69;5140422;27;45557;-59
2023/12/29 05:05:33;;;;;;;;;1.00;1.00;;;;;11.23;75.71;101037.69;5121186;27;47743;-60
2023/12/29 05:07:59;;;;;;;;;0.67;0.67;;;;;11.38;75.73;101055.22;5121234;27;45527;-61
2023/12/29 05:10:25;;;;;;;;;2.33;1.33;;;;;11.30;75.41;101031.59;5140392;27;45387;-60
2023/12/29 05:12:51;;;;;;;;;2.00;1.33;;;;;11.40;75.38;101053.47;5140244;27;45449;-62
2023/12/29 05:15:16;;;;;;;;;2.33;1.00;;;;;11.22;75.44;101030.66;5121134;27;47900;-60
2023/12/29 05:17:42;;;;;;;;;1.00;1.00;;;;;11.29;75.56;101039.44;5140380;27;45229;-61
2023/12/29 05:20:11;;;;;;;;;1.00;1.00;;;;;11.27;76.14;101031.59;5140823;27;45473;-59
2023/12/29 05:22:36;;;;;;;;;3.00;1.00;;;;;11.41;75.80;101045.63;5139763;27;45468;-60
2023/12/29 05:25:03;;;;;;;;;3.00;2.00;;;;;11.32;75.68;101034.19;5140044;27;45588;-60
2023/12/29 05:27:29;;;;;;;;;5.00;1.67;;;;;11.18;75.75;101037.66;5139414;27;45442;-60
2023/12/29 05:29:55;;;;;;;;;5.67;1.33;;;;;11.37;75.80;101063.97;5139826;27;45366;-60
2023/12/29 05:32:20;;;;;;;;;5.67;1.00;;;;;11.35;75.78;101053.47;5127871;27;46727;-61
2023/12/29 05:34:47;;;;;;;;;2.33;0.33;;;;;11.13;75.81;101033.25;5133820;27;46644;-60
2023/12/29 05:37:19;;;;;;;;;1.00;1.00;;;;;11.30;76.42;101056.94;5127443;27;45547;-62
2023/12/29 05:39:44;;;;;;;;;3.67;2.00;;;;;11.25;76.47;101043.81;5139757;27;45443;-59
2023/12/29 05:42:13;;;;;;;;;4.00;2.00;;;;;11.34;76.09;101051.72;5139596;27;45418;-60
2023/12/29 05:44:40;;;;;;;;;6.33;2.33;;;;;11.20;75.92;101029.78;5138983;27;46400;-61
2023/12/29 05:47:06;;;;;;;;;4.00;1.67;;;;;11.37;76.39;101064.84;5138969;27;45679;-59
2023/12/29 05:49:38;;;;;;;;;1.00;1.00;;;;;11.39;75.98;101057.84;5139738;27;45560;-60
2023/12/29 05:52:05;;;;;;;;;3.00;1.00;;;;;11.40;75.83;101058.72;5135827;27;45552;-59
2023/12/29 05:54:34;;;;;;;;;1.00;1.00;;;;;11.42;76.44;101072.72;5129383;27;46098;-59
2023/12/29 05:57:01;;;;;;;;;5.33;2.67;;;;;11.42;75.74;101064.84;5139018;27;45246;-60
2023/12/29 05:59:27;;;;;;;;;3.00;2.33;;;;;11.39;75.74;101068.34;5139317;27;45317;-60
2023/12/29 06:01:53;;;;;;;;;3.33;1.00;;;;;11.31;75.72;101048.19;5139301;27;45439;-60
2023/12/29 06:04:18;;;;;;;;;2.00;1.00;;;;;11.42;76.08;101070.97;5138999;27;45583;-62
2023/12/29 06:06:44;;;;;;;;;1.00;1.00;;;;;11.15;75.41;101032.41;5140279;27;45605;-62
2023/12/29 06:09:12;;;;;;;;;1.00;1.00;;;;;11.43;75.93;101069.22;5121300;27;45671;-63
2023/12/29 06:11:37;;;;;;;;;1.00;1.00;;;;;11.49;75.81;101073.63;5140446;27;45494;-62
2023/12/29 06:14:07;;;;;;;;;2.00;0.67;;;;;11.30;75.38;101049.09;5139644;27;45364;-64
2023/12/29 06:16:32;;;;;;;;;4.67;1.00;;;;;11.45;75.56;101060.47;5138993;27;45789;-62
2023/12/29 06:18:58;;;;;;;;;4.00;1.00;;;;;11.53;75.78;101091.13;5138721;27;45339;-61
2023/12/29 06:21:23;;;;;;;;;2.00;0.67;;;;;11.34;75.65;101053.44;5139167;27;45502;-59
2023/12/29 06:23:50;;;;;;;;;2.67;2.00;;;;;11.46;75.62;101080.63;5138439;27;45460;-61
2023/12/29 06:26:17;;;;;;;;;3.00;1.00;;;;;11.44;75.46;101068.38;5139443;27;45352;-61
2023/12/29 06:28:43;;;;;;;;;4.00;1.33;;;;;11.39;75.23;101057.84;5138937;27;45730;-59
2023/12/29 06:31:08;;;;;;;;;2.33;1.67;;;;;11.22;75.29;101041.16;5138479;27;45216;-60
2023/12/29 06:33:34;;;;;;;;;4.00;2.00;;;;;11.51;74.89;101085.88;5134925;27;45376;-61
2023/12/29 06:36:00;;;;;;;;;1.33;1.33;;;;;11.25;75.52;101049.94;5127558;27;45409;-61
2023/12/29 06:38:25;;;;;;;;;0.67;0.67;;;;;11.51;75.27;101085.88;5137479;27;45478;-61
2023/12/29 06:40:51;;;;;;;;;2.33;1.00;;;;;11.28;74.93;101038.56;5138958;27;45245;-61
2023/12/29 06:43:16;;;;;;;;;4.67;1.00;;;;;11.53;74.68;101083.25;5138900;27;45337;-60
2023/12/29 06:45:42;;;;;;;;;4.33;1.00;;;;;11.30;74.94;101022.84;5138271;27;45579;-61
2023/12/29 06:48:08;;;;;;;;;4.33;1.00;;;;;11.55;74.79;101092.00;5135956;27;45551;-64
2023/12/29 06:50:33;;;;;;;;;6.67;2.00;;;;;11.26;74.29;101021.97;5129141;27;45533;-61
2023/12/29 06:52:59;;;;;;;;;0.67;0.00;;;;;11.51;74.52;101066.63;5117974;27;45419;-60
2023/12/29 06:55:25;;;;;;;;;3.67;1.00;;;;;11.58;74.66;101073.63;5117742;27;45592;-59
2023/12/29 06:57:51;;;;;;;;;1.00;1.00;;;;;11.42;74.45;101043.88;5117711;27;45278;-62
2023/12/29 07:00:17;;;;;;;;;1.67;1.33;;;;;11.58;74.70;101071.91;5116100;27;45510;-60
2023/12/29 07:02:43;;;;;;;;;2.00;1.00;;;;;11.27;74.65;101014.97;5117169;27;46165;-65
2023/12/29 07:05:09;;;;;;;;;1.67;1.00;;;;;11.58;74.43;101057.91;5116816;27;45569;-60
2023/12/29 07:07:39;;;;;;;;;2.33;1.00;;;;;11.41;75.13;101029.91;5116985;27;45562;-62
2023/12/29 07:10:06;;;;;;;;;3.67;1.67;;;;;11.61;75.01;101064.03;5123475;27;45453;-59
2023/12/29 07:12:31;;;;;;;;;2.00;1.00;;;;;11.60;74.47;101058.78;5102733;27;46624;-61
2023/12/29 07:14:57;;;;;;;;;2.00;2.00;;;;;11.63;74.67;101066.69;5118726;27;45431;-60
2023/12/29 07:17:24;;;;;;;;;3.33;1.00;;;;;11.53;74.17;101041.28;5123087;27;45439;-60
2023/12/29 07:19:59;;;;;;;;;1.33;1.00;;;;;11.61;74.38;101071.91;5117942;27;45510;-60
2023/12/29 07:22:28;;;;;;;;;3.00;2.00;;;;;11.49;74.22;101044.78;5117323;27;45449;-60
2023/12/29 07:24:53;;;;;;;;;2.33;0.67;;;;;11.50;74.20;101057.00;5118670;27;46103;-60
2023/12/29 07:27:19;;;;;;;;;1.00;1.00;;;;;11.50;74.26;101057.00;5118228;27;45323;-60
2023/12/29 07:29:48;;;;;;;;;2.33;1.33;;;;;11.23;74.90;101030.69;5117406;27;45490;-59
2023/12/29 07:32:21;;;;;;;;;1.67;1.00;;;;;11.45;75.05;101051.75;5119037;27;45287;-61
2023/12/29 07:34:48;;;;;;;;;2.33;1.00;;;;;11.45;74.83;101057.88;5117117;27;45333;-61
2023/12/29 07:37:14;;;;;;;;;3.00;1.00;;;;;11.23;75.08;101032.44;5125075;27;45499;-61
2023/12/29 07:39:39;;;;;;;;;0.00;0.00;;;;;11.14;75.27;101028.03;5137973;27;45533;-64
2023/12/29 07:42:05;;;;;;;;;3.67;2.00;;;;;11.17;75.15;101035.91;5137613;27;45500;-60
2023/12/29 07:44:31;;;;;;;;;0.33;0.00;;;;;11.27;75.43;101055.19;5138791;27;45488;-59
2023/12/29 07:47:02;;;;;;;;;1.33;1.33;;;;;11.26;76.11;101056.03;5137925;27;45747;-62
2023/12/29 07:49:34;;;;;;;;;1.67;1.33;;;;;10.99;76.16;101015.72;5138068;27;45319;-60
2023/12/29 07:52:00;;;;;;;;;3.00;1.00;;;;;10.79;75.71;100962.34;5119325;27;46577;-60
2023/12/29 07:54:26;;;;;;;;;1.33;0.67;;;;;11.29;76.39;101050.81;5130205;27;45504;-60
2023/12/29 07:56:52;;;;;;;;;4.00;0.67;;;;;10.86;76.02;100985.09;5121347;27;45406;-61
2023/12/29 07:59:18;;;;;;;;;3.00;2.00;;;;;11.21;76.20;101042.03;5120882;27;45296;-60
2023/12/29 08:02:03;;;;;;;;;1.00;1.00;;;;;11.28;76.44;101056.94;5120075;27;45308;-59
2023/12/29 08:04:32;;;;;;;;;2.33;1.00;;;;;11.30;76.04;101064.81;5120494;27;45506;-60
2023/12/29 08:06:58;;;;;;;;;6.00;2.00;;;;;11.31;76.29;101050.81;5120047;27;45520;-60
2023/12/29 08:09:25;;;;;;;;;2.00;1.00;;;;;10.93;76.32;100994.72;5120463;27;45494;-62
2023/12/29 08:11:54;;;;;;;;;2.00;2.00;;;;;10.89;76.23;100985.13;5119897;27;45554;-61
2023/12/29 08:14:23;;;;;;;;;2.00;0.00;;;;;11.28;76.03;101048.19;5120890;27;45583;-62
2023/12/29 08:16:48;;;;;;;;;2.00;1.00;;;;;11.33;76.08;101060.44;5120144;27;45545;-61
2023/12/29 08:19:16;;;;;;;;;0.67;0.67;;;;;11.36;75.74;101056.97;5122697;27;45577;-61
2023/12/29 08:21:42;;;;;;;;;1.33;0.67;;;;;11.39;75.84;101050.00;5120281;27;46996;-61
2023/12/29 08:24:14;;;;;;;;;0.33;0.33;;;;;11.46;75.86;101043.91;5120161;27;45465;-65
2023/12/29 08:26:45;;;;;;;;;4.00;1.00;;;;;11.40;75.64;101014.16;5119998;27;45375;-61
2023/12/29 08:29:19;;;;;;;;;3.33;1.33;;;;;11.66;75.36;101051.81;5120393;27;45498;-61
2023/12/29 08:31:48;;;;;;;;;3.00;1.00;;;;;11.61;74.38;101026.44;5101007;27;45731;-60
2023/12/29 08:34:26;;;;;;;;;1.00;1.00;;;;;11.71;74.48;101033.47;5123442;27;45504;-64
2023/12/29 08:36:52;;;;;;;;;1.00;1.00;;;;;11.83;74.27;101036.09;5122502;27;45522;-65
2023/12/29 08:39:21;;;;;;;;;2.67;1.00;;;;;11.78;73.81;101014.22;5120237;27;45548;-61
2023/12/29 08:41:54;;;;;;;;;1.00;1.00;;;;;11.87;73.84;101047.53;5123601;27;45555;-64
2023/12/29 08:44:21;;;;;;;;;1.00;1.00;;;;;11.44;73.51;100966.94;5109062;27;45342;-68
2023/12/29 08:47:07;;;;;;;;;1.00;1.00;;;;;11.88;74.09;101044.88;5119877;27;45354;-63
2023/12/29 08:49:35;;;;;;;;;3.67;1.67;;;;;11.92;73.68;101050.16;5122407;27;45561;-62
2023/12/29 08:52:13;;;;;;;;;1.67;1.67;;;;;11.75;73.84;101018.59;5108356;27;47923;-65
2023/12/29 08:54:48;;;;;;;;;2.00;0.33;;;;;11.90;73.61;101054.53;5119454;27;45376;-62
2023/12/29 08:57:14;;;;;;;;;6.00;1.00;;;;;12.07;73.75;101068.53;5120428;27;45476;-67
2023/12/29 08:59:40;;;;;;;;;1.00;1.00;;;;;12.55;72.42;101058.03;5123145;27;45371;-61
2023/12/29 09:02:07;;;;;;;;;4.00;1.00;;;;;13.38;70.00;101010.50;5119609;27;46097;-61
2023/12/29 09:04:36;;;;;;;;;5.00;0.67;;;;;14.68;65.42;101035.88;5119568;27;45359;-59
2023/12/29 09:07:04;;;;;;;;;0.33;0.00;;;;;16.14;62.43;101055.13;5120060;27;45594;-63
2023/12/29 09:09:39;;;;;;;;;3.33;1.00;;;;;16.64;59.68;101041.97;5135318;27;45341;-65
2023/12/29 09:12:05;;;;;;;;;1.00;1.00;;;;;16.32;59.39;101031.06;5125653;27;45530;-63
2023/12/29 09:14:34;;;;;;;;;1.00;1.00;;;;;17.22;57.59;101043.50;5109381;27;45383;-60
2023/12/29 09:17:00;;;;;;;;;1.00;1.00;;;;;17.78;55.53;101033.44;5122974;27;45352;-61
2023/12/29 09:19:26;;;;;;;;;0.67;0.67;;;;;17.54;55.06;101053.41;5122964;27;45450;-60
2023/12/29 09:21:52;;;;;;;;;0.00;0.00;;;;;17.27;55.67;101070.72;5127874;27;46184;-61
2023/12/29 09:24:18;;;;;;;;;1.00;1.00;;;;;16.83;55.14;100992.25;5119091;27;45776;-61
2023/12/29 09:26:44;;;;;;;;;1.00;1.00;;;;;16.82;56.18;101059.28;5119261;27;45409;-60
2023/12/29 09:29:38;;;;;;;;;2.00;1.00;;;;;16.19;57.15;101066.50;5051097;28;45579;-61
2023/12/29 09:32:04;;;;;;;;;3.00;3.00;;;;;15.88;57.84;101080.19;5051870;28;45534;-60
2023/12/29 09:34:30;;;;;;;;;2.00;0.33;;;;;15.40;58.89;101084.28;5048978;28;45426;-63
2023/12/29 09:36:56;;;;;;;;;2.00;0.33;;;;;14.79;59.96;101028.72;5051926;28;45643;-60
2023/12/29 09:39:22;;;;;;;;;2.33;0.33;;;;;14.89;60.45;101078.75;5054047;28;45576;-61
2023/12/29 09:41:57;;;;;;;;;2.00;0.00;;;;;14.55;61.44;101076.44;5053023;28;45426;-60
2023/12/29 09:44:25;;;;;;;;;0.33;0.33;;;;;14.36;61.88;101018.56;5053299;28;45345;-60
2023/12/29 09:46:54;;;;;;;;;0.67;0.67;;;;;14.69;61.37;101073.66;5051515;28;45507;-60
2023/12/29 09:49:20;;;;;;;;;1.67;1.00;;;;;15.70;59.00;101056.66;5052728;28;45403;-59
2023/12/29 09:51:48;;;;;;;;;3.00;1.00;;;;;17.13;56.59;101055.16;5053135;28;45427;-59
2023/12/29 09:54:15;;;;;;;;;1.00;1.00;;;;;18.00;53.07;100986.13;5054278;28;45411;-61
2023/12/29 09:56:41;;;;;;;;;0.67;0.00;;;;;19.00;51.48;101081.69;5053307;28;45286;-60
2023/12/29 09:59:11;;;;;;;;;1.00;1.00;;;;;18.82;50.75;101074.25;5054427;28;45476;-61
2023/12/29 10:01:37;;;;;;;;;2.00;1.00;;;;;17.78;51.94;101054.63;5035620;28;45373;-60
2023/12/29 10:04:03;;;;;;;;;1.00;1.00;;;;;17.02;53.73;101074.78;5052717;28;45533;-60
2023/12/29 10:06:34;;;;;;;;;2.00;0.00;;;;;16.31;55.37;101062.78;5052982;28;45769;-59
2023/12/29 10:09:06;;;;;;;;;3.00;1.00;;;;;15.89;56.75;101078.41;5052169;28;45413;-60
2023/12/29 10:11:35;;;;;;;;;1.00;1.00;;;;;15.46;57.94;101089.50;5052688;28;45446;-60
2023/12/29 10:14:22;;;;;;;;;2.00;1.00;;;;;15.05;59.21;101082.97;5053788;28;45464;-60
2023/12/29 10:16:57;;;;;;;;;3.00;1.00;;;;;14.70;60.51;101075.41;5053024;28;45332;-59
2023/12/29 10:19:41;;;;;;;;;1.67;1.00;;;;;14.47;61.44;101091.38;5052569;28;46353;-62
2023/12/29 10:22:18;;;;;;;;;3.00;1.00;;;;;14.06;62.50;101067.13;5052524;28;45485;-61
2023/12/29 10:24:45;;;;;;;;;3.67;2.00;;;;;13.89;63.28;101076.91;5051022;28;45517;-62
2023/12/29 10:27:11;;;;;;;;;1.00;0.00;;;;;13.78;64.26;101083.06;5052996;28;45983;-60
2023/12/29 10:29:38;;;;;;;;;1.00;1.00;;;;;13.75;64.78;101088.38;5072067;28;46307;-60
2023/12/29 10:32:04;;;;;;;;;4.00;2.00;;;;;13.71;64.57;101091.03;5072111;27;45368;-60
2023/12/29 10:34:31;;;;;;;;;2.33;0.33;;;;;13.44;64.98;101055.22;5058717;28;45410;-61
2023/12/29 10:37:03;;;;;;;;;2.33;1.00;;;;;13.64;65.19;101099.84;5073332;28;45545;-63
2023/12/29 10:39:29;;;;;;;;;4.67;2.00;;;;;13.51;65.90;101099.91;5048728;28;45465;-60
2023/12/29 10:42:06;;;;;;;;;2.00;2.00;;;;;13.42;65.98;101093.81;5040162;28;45612;-60
2023/12/29 10:44:36;;;;;;;;;3.33;1.00;;;;;13.09;66.43;101051.78;5059178;28;45360;-60
2023/12/29 10:47:11;;;;;;;;;3.67;1.00;;;;;13.23;66.34;101079.81;5059139;28;45295;-60
2023/12/29 10:49:39;;;;;;;;;2.33;1.00;;;;;13.09;66.77;101072.81;5059196;28;45457;-60
2023/12/29 10:52:16;;;;;;;;;3.00;1.00;;;;;13.11;67.75;101062.31;5057819;28;45534;-59
2023/12/29 10:54:42;;;;;;;;;2.00;1.67;;;;;13.15;67.23;101071.94;5055862;28;45463;-62
2023/12/29 10:57:11;;;;;;;;;3.00;2.67;;;;;13.20;67.03;101080.69;5057078;28;45455;-63
2023/12/29 10:59:37;;;;;;;;;4.00;2.00;;;;;12.83;67.21;101017.69;5049333;28;45334;-64
2023/12/29 11:02:03;;;;;;;;;1.33;1.33;;;;;13.52;65.81;101021.81;5059287;28;45262;-62
2023/12/29 11:04:29;;;;;;;;;3.00;1.00;;;;;14.15;65.25;101067.06;5037101;28;45469;-60
2023/12/29 11:06:56;;;;;;;;;2.33;1.00;;;;;14.62;63.17;101010.47;5054261;28;45462;-61
2023/12/29 11:09:36;;;;;;;;;1.67;1.00;;;;;14.80;62.64;101070.00;5059826;28;46757;-61
2023/12/29 11:12:04;;;;;;;;;2.00;2.00;;;;;15.48;61.36;101056.91;5058693;28;45327;-60
2023/12/29 11:14:35;;;;;;;;;5.00;2.00;;;;;15.78;59.98;101044.25;5059704;28;45403;-61
2023/12/29 11:17:03;;;;;;;;;2.67;2.00;;;;;15.67;59.80;101051.41;5059334;28;45447;-64
2023/12/29 11:19:29;;;;;;;;;2.67;1.33;;;;;15.34;60.51;101048.31;5058391;28;45375;-60
2023/12/29 11:21:56;;;;;;;;;2.33;1.00;;;;;15.08;61.03;101059.19;5060205;28;45446;-61
2023/12/29 11:24:23;;;;;;;;;8.67;2.67;;;;;14.73;63.41;101035.81;5058615;28;45362;-63
2023/12/29 11:26:50;;;;;;;;;3.00;1.33;;;;;14.33;62.56;101013.34;5059124;28;45401;-62